createdAt,value
2022-12-27T08:03:00.896Z,432.00
2022-12-27T08:04:16.741Z,448.00
2022-12-27T08:04:55.497Z,492.00
2022-12-27T08:05:36.985Z,496.00
2022-12-27T08:06:36.965Z,520.00
2022-12-27T08:07:37.975Z,512.00
2022-12-27T08:08:36.948Z,504.00
2022-12-27T08:09:36.964Z,512.00
2022-12-27T08:10:36.922Z,512.00
2022-12-27T08:11:36.909Z,516.00
2022-12-27T08:12:36.913Z,528.00
2022-12-27T08:13:36.919Z,540.00
2022-12-27T08:14:36.894Z,564.00
2022-12-27T08:15:36.906Z,580.00
2022-12-27T08:16:36.889Z,620.00
2022-12-27T08:17:36.850Z,648.00
2022-12-27T08:18:36.866Z,672.00
2022-12-27T08:19:36.887Z,700.00
2022-12-27T08:20:36.819Z,712.00
2022-12-27T08:21:36.828Z,736.00
2022-12-27T08:22:36.795Z,772.00
2022-12-27T08:23:36.785Z,772.00
2022-12-27T08:24:36.769Z,756.00
2022-12-27T08:25:36.766Z,744.00
2022-12-27T08:26:36.772Z,748.00
2022-12-27T08:27:36.736Z,740.00
2022-12-27T08:28:36.727Z,680.00
2022-12-27T08:29:36.704Z,676.00
2022-12-27T08:30:36.839Z,688.00
2022-12-27T08:31:36.705Z,676.00
2022-12-27T08:32:36.679Z,684.00
2022-12-27T08:33:36.673Z,716.00
2022-12-27T08:34:36.674Z,784.00
2022-12-27T08:35:53.558Z,812.00
2022-12-27T08:36:54.737Z,840.00
2022-12-27T08:37:37.632Z,852.00
2022-12-27T08:38:36.630Z,880.00
2022-12-27T08:39:36.607Z,928.00
2022-12-27T08:40:36.604Z,940.00
2022-12-27T08:41:36.585Z,908.00
2022-12-27T08:42:36.579Z,908.00
2022-12-27T08:43:36.547Z,904.00
2022-12-27T08:44:36.556Z,840.00
2022-12-27T08:45:36.525Z,804.00
2022-12-27T08:46:44.473Z,796.00
2022-12-27T08:47:36.509Z,840.00
2022-12-27T08:48:36.537Z,896.00
2022-12-27T08:49:36.508Z,928.00
2022-12-27T08:50:36.511Z,948.00
2022-12-27T08:51:41.199Z,968.00
2022-12-27T08:52:37.457Z,980.00
2022-12-27T08:53:36.480Z,996.00
2022-12-27T08:54:36.444Z,1000.00
2022-12-27T08:55:36.421Z,1000.00
2022-12-27T08:56:36.407Z,1008.00
2022-12-27T08:57:36.410Z,1016.00
2022-12-27T08:58:36.399Z,1028.00
2022-12-27T08:59:36.397Z,1036.00
2022-12-27T09:00:36.377Z,1044.00
2022-12-27T09:01:36.536Z,1052.00
2022-12-27T09:02:37.438Z,1056.00
2022-12-27T09:03:36.387Z,1060.00
2022-12-27T09:04:36.335Z,1064.00
2022-12-27T09:05:41.486Z,1072.00
2022-12-27T09:06:37.318Z,1076.00
2022-12-27T09:07:36.279Z,1092.00
2022-12-27T09:08:36.288Z,1104.00
2022-12-27T09:09:36.275Z,1112.00
2022-12-27T09:10:36.354Z,1128.00
2022-12-27T09:11:36.240Z,1140.00
2022-12-27T09:12:36.229Z,1132.00
2022-12-27T09:13:36.227Z,1128.00
2022-12-27T09:14:36.218Z,1144.00
2022-12-27T09:15:36.229Z,1180.00
2022-12-27T09:16:37.197Z,1212.00
2022-12-27T09:17:36.181Z,1288.00
2022-12-27T09:18:36.178Z,1252.00
2022-12-27T09:19:36.160Z,1280.00
2022-12-27T09:20:37.178Z,1220.00
2022-12-27T09:21:36.123Z,1192.00
2022-12-27T09:22:36.135Z,1268.00
2022-12-27T09:23:36.117Z,1464.00
2022-12-27T09:24:36.096Z,1660.00
2022-12-27T09:25:36.207Z,1460.00
2022-12-27T09:26:36.089Z,1408.00
2022-12-27T09:27:36.070Z,1396.00
2022-12-27T09:28:37.061Z,1384.00
2022-12-27T09:29:36.036Z,1344.00
2022-12-27T09:30:37.039Z,1260.00
2022-12-27T09:31:36.058Z,1276.00
2022-12-27T09:32:36.005Z,1376.00
2022-12-27T09:33:36.004Z,1408.00
2022-12-27T09:34:36.023Z,1424.00
2022-12-27T09:35:38.653Z,1448.00
2022-12-27T09:36:35.996Z,1456.00
2022-12-27T09:37:36.950Z,1472.00
2022-12-27T09:38:35.958Z,1488.00
2022-12-27T09:39:35.942Z,1480.00
2022-12-27T09:40:35.987Z,1528.00
2022-12-27T09:43:06.185Z,1456.00
2022-12-27T09:43:36.891Z,1532.00
2022-12-27T09:44:35.902Z,1608.00
2022-12-27T09:45:35.873Z,1640.00
2022-12-27T09:46:35.878Z,1684.00
2022-12-27T09:47:35.863Z,1688.00
2022-12-27T09:48:35.835Z,1832.00
2022-12-27T09:49:35.881Z,1800.00
2022-12-27T09:50:35.814Z,1720.00
2022-12-27T09:51:35.791Z,2104.00
2022-12-27T09:52:35.792Z,2012.00
2022-12-27T09:53:35.791Z,1932.00
2022-12-27T09:54:35.781Z,1688.00
2022-12-27T09:55:35.755Z,1952.00
2022-12-27T09:57:09.702Z,2008.00
2022-12-27T09:57:36.737Z,2024.00
2022-12-27T09:58:35.743Z,2052.00
2022-12-27T09:59:35.712Z,2112.00
2022-12-27T10:00:37.210Z,2220.00
2022-12-27T10:01:35.792Z,2368.00
2022-12-27T10:02:36.784Z,2572.00
2022-12-27T10:03:35.681Z,2808.00
2022-12-27T10:05:09.946Z,3044.00
2022-12-27T10:05:36.652Z,3244.00
2022-12-27T10:06:35.651Z,3424.00
2022-12-27T10:07:35.620Z,3588.00
2022-12-27T10:08:35.625Z,3808.00
2022-12-27T10:09:35.587Z,4176.00
2022-12-27T10:10:35.619Z,4680.00
2022-12-27T10:11:35.573Z,4924.00
2022-12-27T10:12:35.562Z,5320.00
2022-12-27T10:13:35.612Z,5816.00
2022-12-27T10:14:35.571Z,5448.00
2022-12-27T10:15:35.587Z,6244.00
2022-12-27T10:16:35.577Z,6328.00
2022-12-27T10:17:36.507Z,6424.00
2022-12-27T10:18:35.494Z,6376.00
2022-12-27T10:19:35.514Z,6424.00
2022-12-27T10:20:35.496Z,6060.00
2022-12-27T10:21:35.465Z,6128.00
2022-12-27T10:22:35.454Z,6340.00
2022-12-27T10:23:35.431Z,6364.00
2022-12-27T10:24:35.432Z,4516.00
2022-12-27T10:25:35.419Z,6572.00
2022-12-27T10:26:35.434Z,7004.00
2022-12-27T10:27:53.416Z,7240.00
2022-12-27T10:28:35.394Z,6720.00
2022-12-27T10:29:35.376Z,6540.00
2022-12-27T10:30:35.356Z,6448.00
2022-12-27T10:31:35.425Z,6516.00
2022-12-27T10:32:35.331Z,6500.00
2022-12-27T10:33:35.349Z,6644.00
2022-12-27T10:34:35.331Z,5012.00
2022-12-27T10:35:35.295Z,6720.00
2022-12-27T10:36:35.286Z,5620.00
2022-12-27T10:37:35.269Z,6300.00
2022-12-27T10:38:35.286Z,6664.00
2022-12-27T10:39:35.288Z,6764.00
2022-12-27T10:40:35.240Z,6292.00
2022-12-27T10:41:35.238Z,7020.00
2022-12-27T10:42:35.242Z,6628.00
2022-12-27T10:43:35.201Z,7112.00
2022-12-27T10:44:35.211Z,6612.00
2022-12-27T10:45:35.202Z,6140.00
2022-12-27T10:46:35.240Z,6600.00
2022-12-27T10:47:35.159Z,6500.00
2022-12-27T10:49:10.885Z,2972.00
2022-12-27T10:49:36.166Z,3084.00
2022-12-27T10:50:35.131Z,2804.00
2022-12-27T10:51:35.129Z,2896.00
2022-12-27T10:52:35.107Z,4156.00
2022-12-27T10:53:35.112Z,2720.00
2022-12-27T10:54:35.111Z,2820.00
2022-12-27T10:55:35.072Z,2380.00
2022-12-27T10:56:35.062Z,2608.00
2022-12-27T10:57:35.062Z,3848.00
2022-12-27T10:58:35.071Z,5612.00
2022-12-27T10:59:35.054Z,2820.00
2022-12-27T11:00:35.060Z,2540.00
2022-12-27T11:01:35.179Z,2456.00
2022-12-27T11:02:35.066Z,2516.00
2022-12-27T11:03:34.987Z,3624.00
2022-12-27T11:04:34.979Z,3452.00
2022-12-27T11:05:34.964Z,7168.00
2022-12-27T11:06:34.952Z,6224.00
2022-12-27T11:07:34.932Z,7712.00
2022-12-27T11:08:34.927Z,8360.00
2022-12-27T11:09:34.927Z,4640.00
2022-12-27T11:10:34.922Z,7000.00
2022-12-27T11:11:34.909Z,3748.00
2022-12-27T11:12:34.879Z,2980.00
2022-12-27T11:13:34.875Z,2996.00
2022-12-27T11:14:34.889Z,3172.00
2022-12-27T11:15:34.867Z,4624.00
2022-12-27T11:16:34.973Z,6068.00
2022-12-27T11:17:34.841Z,8288.00
2022-12-27T11:18:34.826Z,8752.00
2022-12-27T11:19:34.816Z,9104.00
2022-12-27T11:20:34.801Z,8936.00
2022-12-27T11:21:36.194Z,7240.00
2022-12-27T11:22:34.763Z,6712.00
2022-12-27T11:23:34.760Z,4924.00
2022-12-27T11:24:34.756Z,3876.00
2022-12-27T11:25:34.754Z,2616.00
2022-12-27T11:26:34.718Z,2524.00
2022-12-27T11:27:34.727Z,2396.00
2022-12-27T11:28:34.743Z,2168.00
2022-12-27T11:29:34.704Z,1908.00
2022-12-27T11:30:34.715Z,2036.00
2022-12-27T11:31:34.721Z,1916.00
2022-12-27T11:32:34.654Z,1804.00
2022-12-27T11:33:34.659Z,1624.00
2022-12-27T11:34:34.643Z,1256.00
2022-12-27T11:35:34.638Z,1060.00
2022-12-27T11:36:34.618Z,972.00
2022-12-27T11:37:34.615Z,828.00
2022-12-27T11:38:34.581Z,912.00
2022-12-27T11:39:34.577Z,1064.00
2022-12-27T11:40:34.698Z,1028.00
2022-12-27T11:41:34.583Z,1392.00
2022-12-27T11:42:34.557Z,1716.00
2022-12-27T11:43:34.546Z,2200.00
2022-12-27T11:44:34.539Z,2204.00
2022-12-27T11:45:34.521Z,1972.00
2022-12-27T11:46:34.608Z,2348.00
2022-12-27T11:47:34.499Z,2716.00
2022-12-27T11:48:34.472Z,2448.00
2022-12-27T11:49:34.476Z,1844.00
2022-12-27T11:50:34.461Z,1544.00
2022-12-27T11:51:34.466Z,1792.00
2022-12-27T11:52:34.426Z,2092.00
2022-12-27T11:53:34.436Z,2016.00
2022-12-27T11:54:34.428Z,1620.00
2022-12-27T11:55:34.400Z,1260.00
2022-12-27T11:56:34.404Z,1208.00
2022-12-27T11:57:34.375Z,1128.00
2022-12-27T11:58:34.385Z,1128.00
2022-12-27T11:59:34.356Z,1088.00
2022-12-27T12:00:35.097Z,1132.00
2022-12-27T12:01:34.369Z,1264.00
2022-12-27T12:02:34.382Z,1372.00
2022-12-27T12:03:34.459Z,1376.00
2022-12-27T12:04:34.292Z,1304.00
2022-12-27T12:05:34.290Z,1244.00
2022-12-27T12:06:34.820Z,1432.00
2022-12-27T12:07:34.295Z,1476.00
2022-12-27T12:08:34.261Z,1508.00
2022-12-27T12:09:34.255Z,1288.00
2022-12-27T12:10:34.239Z,1032.00
2022-12-27T12:11:34.234Z,1136.00
2022-12-27T12:12:34.217Z,1436.00
2022-12-27T12:13:34.238Z,1860.00
2022-12-27T12:14:34.193Z,2116.00
2022-12-27T12:15:34.287Z,2708.00
2022-12-27T12:16:34.236Z,2900.00
2022-12-27T12:17:36.282Z,3144.00
2022-12-27T12:18:34.164Z,3212.00
2022-12-27T12:19:34.141Z,3176.00
2022-12-27T12:20:34.124Z,3488.00
2022-12-27T12:21:34.117Z,4004.00
2022-12-27T12:22:34.089Z,3516.00
2022-12-27T12:23:34.091Z,2776.00
2022-12-27T12:24:34.097Z,2288.00
2022-12-27T12:25:34.065Z,1896.00
2022-12-27T12:26:34.078Z,2120.00
2022-12-27T12:27:34.058Z,2280.00
2022-12-27T12:28:59.369Z,2264.00
2022-12-27T12:29:35.032Z,2060.00
2022-12-27T12:30:34.022Z,1684.00
2022-12-27T12:31:34.045Z,1888.00
2022-12-27T12:32:33.985Z,1940.00
2022-12-27T12:33:33.970Z,1516.00
2022-12-27T12:34:33.978Z,1356.00
2022-12-27T12:35:33.963Z,1264.00
2022-12-27T12:36:33.950Z,1416.00
2022-12-27T12:37:33.938Z,1680.00
2022-12-27T12:38:33.917Z,1756.00
2022-12-27T12:39:33.916Z,1700.00
2022-12-27T12:40:33.905Z,1716.00
2022-12-27T12:41:33.879Z,1572.00
2022-12-27T12:42:34.879Z,1564.00
2022-12-27T12:43:33.868Z,1488.00
2022-12-27T12:44:39.580Z,1468.00
2022-12-27T12:45:34.911Z,1740.00
2022-12-27T12:46:33.823Z,1876.00
2022-12-27T12:47:33.817Z,1596.00
2022-12-27T12:48:33.797Z,1424.00
2022-12-27T12:49:33.803Z,1284.00
2022-12-27T12:50:33.801Z,1248.00
2022-12-27T12:51:33.787Z,1308.00
2022-12-27T12:52:33.759Z,1448.00
2022-12-27T12:53:33.753Z,1596.00
2022-12-27T12:54:33.733Z,1832.00
2022-12-27T12:55:38.543Z,1764.00
2022-12-27T12:56:34.721Z,1684.00
2022-12-27T12:57:33.712Z,1760.00
2022-12-27T12:58:33.700Z,1608.00
2022-12-27T12:59:33.678Z,1532.00
2022-12-27T13:00:33.679Z,1932.00
2022-12-27T13:01:33.840Z,2000.00
2022-12-27T13:02:33.790Z,2336.00
2022-12-27T13:03:33.679Z,2800.00
2022-12-27T13:04:33.637Z,2564.00
2022-12-27T13:05:33.633Z,2220.00
2022-12-27T13:06:33.664Z,1792.00
2022-12-27T13:07:39.330Z,1864.00
2022-12-27T13:08:34.571Z,1744.00
2022-12-27T13:09:33.565Z,1836.00
2022-12-27T13:10:33.586Z,1960.00
2022-12-27T13:11:33.559Z,2020.00
2022-12-27T13:12:33.565Z,1860.00
2022-12-27T13:13:34.519Z,1756.00
2022-12-27T13:14:33.514Z,1784.00
2022-12-27T13:15:33.498Z,2116.00
2022-12-27T13:16:33.554Z,2524.00
2022-12-27T13:17:33.495Z,2084.00
2022-12-27T13:18:33.477Z,2096.00
2022-12-27T13:19:33.465Z,2052.00
2022-12-27T13:20:33.451Z,2024.00
2022-12-27T13:21:33.446Z,1952.00
2022-12-27T13:22:33.476Z,1840.00
2022-12-27T13:23:33.405Z,1796.00
2022-12-27T13:24:33.391Z,1828.00
2022-12-27T13:25:33.428Z,1900.00
2022-12-27T13:26:33.372Z,2052.00
2022-12-27T13:27:33.376Z,2116.00
2022-12-27T13:28:34.369Z,2040.00
2022-12-27T13:29:33.339Z,2036.00
2022-12-27T13:30:33.380Z,1948.00
2022-12-27T13:31:33.334Z,1924.00
2022-12-27T13:32:33.326Z,1968.00
2022-12-27T13:33:33.297Z,2112.00
2022-12-27T13:34:33.296Z,2576.00
2022-12-27T13:35:33.272Z,3512.00
2022-12-27T13:36:33.260Z,2168.00
2022-12-27T13:37:33.249Z,1920.00
2022-12-27T13:38:33.291Z,1864.00
2022-12-27T13:39:33.261Z,1928.00
2022-12-27T13:40:33.210Z,2128.00
2022-12-27T13:41:33.220Z,2264.00
2022-12-27T13:42:33.207Z,2076.00
2022-12-27T13:43:33.230Z,1992.00
2022-12-27T13:44:33.171Z,1916.00
2022-12-27T13:45:33.170Z,1712.00
2022-12-27T13:46:38.149Z,1752.00
2022-12-27T13:47:34.183Z,2928.00
2022-12-27T13:48:33.125Z,1952.00
2022-12-27T13:49:33.130Z,2008.00
2022-12-27T13:50:33.126Z,2160.00
2022-12-27T13:51:33.107Z,3180.00
2022-12-27T13:52:33.079Z,2380.00
2022-12-27T13:53:33.084Z,2364.00
2022-12-27T13:54:33.093Z,1880.00
2022-12-27T13:55:33.055Z,1484.00
2022-12-27T13:57:34.021Z,1560.00
2022-12-27T13:58:34.051Z,1556.00
2022-12-27T13:59:33.016Z,1368.00
2022-12-27T14:00:33.002Z,1312.00
2022-12-27T14:01:33.095Z,1268.00
2022-12-27T14:02:33.257Z,1200.00
2022-12-27T14:03:33.084Z,1200.00
2022-12-27T14:04:32.956Z,1236.00
2022-12-27T14:05:32.936Z,1236.00
2022-12-27T14:06:32.919Z,1224.00
2022-12-27T14:07:32.928Z,1196.00
2022-12-27T14:08:32.902Z,1300.00
2022-12-27T14:09:32.903Z,1448.00
2022-12-27T14:10:32.907Z,1368.00
2022-12-27T14:11:32.866Z,1056.00
2022-12-27T14:12:32.849Z,1004.00
2022-12-27T14:13:32.844Z,956.00
2022-12-27T14:14:32.845Z,960.00
2022-12-27T14:15:32.878Z,888.00
2022-12-27T14:16:32.825Z,964.00
2022-12-27T14:17:32.805Z,924.00
2022-12-27T14:18:32.799Z,844.00
2022-12-27T14:19:32.803Z,784.00
2022-12-27T14:20:32.763Z,716.00
2022-12-27T14:21:32.764Z,828.00
2022-12-27T14:22:32.757Z,848.00
2022-12-27T14:23:32.732Z,880.00
2022-12-27T14:24:32.748Z,844.00
2022-12-27T14:25:32.709Z,852.00
2022-12-27T14:26:32.732Z,824.00
2022-12-27T14:27:32.686Z,792.00
2022-12-27T14:28:32.691Z,756.00
2022-12-27T14:29:32.681Z,752.00
2022-12-27T14:30:32.673Z,716.00
2022-12-27T14:31:32.643Z,692.00
2022-12-27T14:32:32.640Z,668.00
2022-12-27T14:33:32.647Z,652.00
2022-12-27T14:34:32.619Z,644.00
2022-12-27T14:35:32.610Z,636.00
2022-12-27T14:36:32.595Z,624.00
2022-12-27T14:37:32.575Z,620.00
2022-12-27T14:38:32.562Z,604.00
2022-12-27T14:39:32.552Z,576.00
2022-12-27T14:40:34.894Z,520.00
2022-12-27T14:41:32.546Z,480.00
2022-12-27T14:42:32.549Z,452.00
2022-12-27T14:43:32.506Z,436.00
2022-12-27T14:44:32.505Z,428.00
2022-12-27T14:45:32.500Z,424.00
2022-12-27T14:46:32.517Z,424.00
2022-12-27T14:47:32.493Z,416.00
2022-12-27T14:48:32.470Z,400.00
2022-12-27T14:49:32.456Z,384.00
2022-12-27T14:50:32.443Z,380.00
2022-12-27T14:51:59.481Z,360.00
2022-12-27T14:52:33.436Z,352.00
2022-12-27T14:53:32.408Z,348.00
2022-12-27T14:54:32.379Z,348.00
2022-12-27T14:55:32.386Z,336.00
2022-12-27T14:56:32.357Z,332.00
2022-12-27T14:57:33.999Z,340.00
2022-12-27T14:58:32.375Z,332.00
2022-12-27T14:59:32.340Z,336.00
2022-12-27T15:00:32.324Z,336.00
2022-12-27T15:01:32.402Z,336.00
2022-12-27T15:02:32.527Z,344.00
2022-12-27T15:03:39.456Z,348.00
2022-12-27T15:04:33.276Z,344.00
2022-12-27T15:05:32.325Z,348.00
2022-12-27T15:06:32.257Z,348.00
2022-12-27T15:07:32.304Z,336.00
2022-12-27T15:08:33.218Z,320.00
2022-12-27T15:09:32.248Z,292.00
2022-12-27T15:10:33.818Z,264.00
2022-12-27T15:11:32.209Z,244.00
2022-12-27T15:12:32.182Z,228.00
2022-12-27T15:13:32.195Z,212.00
2022-12-27T15:14:32.202Z,204.00
2022-12-27T15:15:32.163Z,188.00
2022-12-27T15:16:32.167Z,184.00
2022-12-27T15:17:32.140Z,172.00
2022-12-27T15:18:34.900Z,168.00
2022-12-27T15:19:32.101Z,160.00
2022-12-27T15:20:32.100Z,156.00
2022-12-27T15:21:35.788Z,152.00
2022-12-27T15:22:33.062Z,144.00
2022-12-27T15:23:32.076Z,136.00
2022-12-27T15:24:32.065Z,128.00
2022-12-27T15:25:32.039Z,116.00
2022-12-27T15:26:32.037Z,108.00
2022-12-27T15:27:32.015Z,100.00
2022-12-27T15:28:32.029Z,96.00
2022-12-27T15:29:32.001Z,84.00
2022-12-27T15:30:32.005Z,80.00
2022-12-27T15:31:32.007Z,76.00
2022-12-27T15:32:31.966Z,68.00
2022-12-27T15:33:31.943Z,64.00
2022-12-27T15:34:31.958Z,56.00
2022-12-27T15:35:31.929Z,52.00
2022-12-27T15:36:31.909Z,48.00
2022-12-27T15:37:31.890Z,40.00
2022-12-27T15:38:31.896Z,36.00
2022-12-27T15:39:31.885Z,36.00
2022-12-27T15:40:31.878Z,32.00
2022-12-27T15:41:31.874Z,28.00
2022-12-27T15:42:37.798Z,24.00
2022-12-27T15:43:32.856Z,24.00
2022-12-27T15:44:31.840Z,20.00
2022-12-27T15:45:31.815Z,20.00
2022-12-27T15:46:36.120Z,16.00
2022-12-27T15:47:31.807Z,16.00
2022-12-27T15:48:31.774Z,8.00
2022-12-27T15:49:31.819Z,12.00
2022-12-27T15:50:31.767Z,8.00
2022-12-27T15:51:31.745Z,8.00
2022-12-27T15:52:31.743Z,8.00
2022-12-27T15:53:31.719Z,4.00
2022-12-27T15:54:31.741Z,8.00
2022-12-27T15:55:38.176Z,0.00
2022-12-27T15:56:31.686Z,4.00
2022-12-27T15:57:31.683Z,4.00
2022-12-27T15:58:31.666Z,4.00
2022-12-27T15:59:31.646Z,0.00
2022-12-27T16:00:34.340Z,4.00
2022-12-27T16:01:31.800Z,4.00
2022-12-27T16:02:31.965Z,4.00
2022-12-27T16:03:31.660Z,4.00
2022-12-27T16:04:31.607Z,0.00
2022-12-27T16:05:31.620Z,0.00
2022-12-27T16:06:31.585Z,0.00
2022-12-27T16:07:31.567Z,0.00
2022-12-27T16:08:31.565Z,0.00
2022-12-27T16:09:31.534Z,0.00
2022-12-27T16:10:31.535Z,0.00
2022-12-27T16:11:31.534Z,0.00
2022-12-27T16:12:31.516Z,0.00
2022-12-27T16:13:34.453Z,0.00
2022-12-27T16:14:32.503Z,0.00
2022-12-27T16:15:31.480Z,0.00
2022-12-27T16:16:31.557Z,0.00
2022-12-27T16:17:31.472Z,0.00
2022-12-27T16:18:31.475Z,0.00
2022-12-27T16:19:36.872Z,0.00
2022-12-27T16:20:32.428Z,0.00
2022-12-27T16:21:31.430Z,0.00
2022-12-27T16:22:31.398Z,0.00
2022-12-27T16:23:31.387Z,0.00
2022-12-27T16:24:31.381Z,0.00
2022-12-27T16:25:31.829Z,0.00
2022-12-27T16:26:31.363Z,0.00
2022-12-27T16:27:31.359Z,0.00
2022-12-27T16:28:31.325Z,0.00
2022-12-27T16:29:31.321Z,0.00
2022-12-27T16:30:31.313Z,0.00
2022-12-27T16:31:31.369Z,0.00
2022-12-27T16:32:31.296Z,0.00
2022-12-27T16:33:31.264Z,0.00
2022-12-27T16:34:31.295Z,0.00
2022-12-27T16:35:31.253Z,0.00
2022-12-27T16:36:31.243Z,0.00
2022-12-27T16:37:31.220Z,0.00
2022-12-27T16:38:31.223Z,0.00
2022-12-27T16:39:31.209Z,0.00
2022-12-27T16:40:31.202Z,0.00
2022-12-27T16:41:31.211Z,0.00
2022-12-27T16:42:31.165Z,0.00
2022-12-27T16:43:31.156Z,0.00
2022-12-27T16:44:37.858Z,0.00
2022-12-27T16:45:32.138Z,0.00
2022-12-27T16:46:31.239Z,0.00
2022-12-27T16:47:31.222Z,0.00
2022-12-27T16:48:31.144Z,0.00
2022-12-27T16:49:31.187Z,0.00
2022-12-27T16:50:33.590Z,0.00
2022-12-27T16:51:32.069Z,0.00
2022-12-27T16:52:31.078Z,0.00
2022-12-27T16:53:31.036Z,0.00
2022-12-27T16:54:31.049Z,0.00
2022-12-27T16:55:31.029Z,0.00
2022-12-27T16:56:31.007Z,0.00
2022-12-27T16:57:31.007Z,0.00
2022-12-27T16:58:31.004Z,0.00
2022-12-27T16:59:30.979Z,0.00
2022-12-27T17:00:31.092Z,0.00
2022-12-27T17:01:31.054Z,0.00
2022-12-27T17:02:32.128Z,0.00
2022-12-27T17:03:30.938Z,0.00
2022-12-27T17:04:30.932Z,0.00
2022-12-27T17:05:30.903Z,0.00
2022-12-27T17:06:33.696Z,0.00
2022-12-27T17:07:30.896Z,0.00
2022-12-27T17:08:30.908Z,0.00
2022-12-27T17:09:33.933Z,0.00
2022-12-27T17:10:30.873Z,0.00
2022-12-27T17:11:30.839Z,0.00
2022-12-27T17:12:30.848Z,0.00
2022-12-27T17:13:30.864Z,0.00
2022-12-27T17:14:30.806Z,0.00
2022-12-27T17:15:30.810Z,0.00
2022-12-27T17:16:38.419Z,0.00
2022-12-27T17:17:30.780Z,0.00
2022-12-27T17:18:30.783Z,0.00
2022-12-27T17:19:30.782Z,0.00
2022-12-27T17:20:30.746Z,0.00
2022-12-27T17:21:30.944Z,0.00
2022-12-27T17:22:35.017Z,0.00
2022-12-27T17:23:30.702Z,0.00
2022-12-27T17:24:31.711Z,0.00
2022-12-27T17:25:30.677Z,0.00
2022-12-27T17:26:30.687Z,0.00
2022-12-27T17:27:30.660Z,0.00
2022-12-27T17:28:30.657Z,0.00
2022-12-27T17:29:30.668Z,0.00
2022-12-27T17:30:30.627Z,0.00
2022-12-27T17:31:30.716Z,0.00
2022-12-27T17:32:30.604Z,0.00
2022-12-27T17:33:30.592Z,0.00
2022-12-27T17:34:30.602Z,0.00
2022-12-27T17:35:30.585Z,0.00
2022-12-27T17:36:31.576Z,0.00
2022-12-27T17:37:30.558Z,0.00
2022-12-27T17:38:30.578Z,0.00
2022-12-27T17:39:30.547Z,0.00
2022-12-27T17:40:30.540Z,0.00
2022-12-27T17:41:30.499Z,0.00
2022-12-27T17:42:30.492Z,0.00
2022-12-27T17:43:30.501Z,0.00
2022-12-27T17:44:30.499Z,0.00
2022-12-27T17:45:30.500Z,0.00
2022-12-27T17:46:30.465Z,0.00
2022-12-27T17:47:30.447Z,0.00
2022-12-27T17:48:30.443Z,0.00
2022-12-27T17:49:30.414Z,0.00
2022-12-27T17:50:30.425Z,0.00
2022-12-27T17:51:30.400Z,0.00
2022-12-27T17:52:30.379Z,0.00
2022-12-27T17:53:30.382Z,0.00
2022-12-27T17:54:30.393Z,0.00
2022-12-27T17:55:30.433Z,0.00
2022-12-27T17:56:30.356Z,0.00
2022-12-27T17:57:30.322Z,0.00
2022-12-27T17:58:30.328Z,0.00
2022-12-27T17:59:30.305Z,0.00
2022-12-27T18:00:30.314Z,0.00
2022-12-27T18:01:30.475Z,0.00
2022-12-27T18:02:30.409Z,0.00
2022-12-27T18:03:30.286Z,0.00
2022-12-27T18:04:30.251Z,0.00
2022-12-27T18:05:30.252Z,0.00
2022-12-27T18:06:30.261Z,0.00
2022-12-27T18:07:30.208Z,0.00
2022-12-27T18:08:31.222Z,0.00
2022-12-27T18:09:30.200Z,0.00
2022-12-27T18:10:30.221Z,0.00
2022-12-27T18:11:31.185Z,0.00
2022-12-27T18:12:30.156Z,0.00
2022-12-27T18:13:30.150Z,0.00
2022-12-27T18:14:30.144Z,0.00
2022-12-27T18:15:30.139Z,0.00
2022-12-27T18:16:31.198Z,0.00
2022-12-27T18:18:08.825Z,0.00
2022-12-27T18:18:30.105Z,0.00
2022-12-27T18:19:30.088Z,0.00
2022-12-27T18:20:30.070Z,0.00
2022-12-27T18:21:30.069Z,0.00
2022-12-27T18:22:30.047Z,0.00
2022-12-27T18:23:30.062Z,0.00
2022-12-27T18:24:30.022Z,0.00
2022-12-27T18:25:30.016Z,0.00
2022-12-27T18:26:30.047Z,0.00
2022-12-27T18:27:30.024Z,0.00
2022-12-27T18:28:33.526Z,0.00
2022-12-27T18:29:29.973Z,0.00
2022-12-27T18:30:29.963Z,0.00
2022-12-27T18:31:30.000Z,0.00
2022-12-27T18:32:29.951Z,0.00
2022-12-27T18:33:29.950Z,0.00
2022-12-27T18:34:29.923Z,0.00
2022-12-27T18:35:29.910Z,0.00
2022-12-27T18:36:29.888Z,0.00
2022-12-27T18:37:29.884Z,0.00
2022-12-27T18:38:29.873Z,0.00
2022-12-27T18:39:29.880Z,0.00
2022-12-27T18:40:29.857Z,0.00
2022-12-27T18:41:29.841Z,0.00
2022-12-27T18:42:29.846Z,0.00
2022-12-27T18:43:30.804Z,0.00
2022-12-27T18:44:29.827Z,0.00
2022-12-27T18:45:29.857Z,0.00
2022-12-27T18:46:29.797Z,0.00
2022-12-27T18:47:29.759Z,0.00
2022-12-27T18:48:29.758Z,0.00
2022-12-27T18:49:29.787Z,0.00
2022-12-27T18:50:29.767Z,0.00
2022-12-27T18:51:29.727Z,0.00
2022-12-27T18:52:29.732Z,0.00
2022-12-27T18:53:29.695Z,0.00
2022-12-27T18:54:29.734Z,0.00
2022-12-27T18:55:29.687Z,0.00
2022-12-27T18:56:29.682Z,0.00
2022-12-27T18:57:29.648Z,0.00
2022-12-27T18:58:29.676Z,0.00
2022-12-27T18:59:30.637Z,0.00
2022-12-27T19:00:29.648Z,0.00
2022-12-27T19:01:29.659Z,0.00
2022-12-27T19:02:29.686Z,0.00
2022-12-27T19:03:30.999Z,0.00
2022-12-27T19:04:29.583Z,0.00
2022-12-27T19:05:29.583Z,0.00
2022-12-27T19:06:30.563Z,0.00
2022-12-27T19:07:29.533Z,0.00
2022-12-27T19:08:29.530Z,0.00
2022-12-27T19:09:29.519Z,0.00
2022-12-27T19:10:29.518Z,0.00
2022-12-27T19:11:36.064Z,0.00
2022-12-27T19:12:30.496Z,0.00
2022-12-27T19:13:29.487Z,0.00
2022-12-27T19:14:29.502Z,0.00
2022-12-27T19:15:29.549Z,0.00
2022-12-27T19:16:29.540Z,0.00
2022-12-27T19:17:29.428Z,0.00
2022-12-27T19:18:30.426Z,0.00
2022-12-27T19:19:29.401Z,0.00
2022-12-27T19:20:29.430Z,0.00
2022-12-27T19:21:29.393Z,0.00
2022-12-27T19:22:29.391Z,0.00
2022-12-27T19:23:29.383Z,0.00
2022-12-27T19:24:29.387Z,0.00
2022-12-27T19:25:29.555Z,0.00
2022-12-27T19:26:29.335Z,0.00
2022-12-27T19:27:29.347Z,0.00
2022-12-27T19:28:29.310Z,0.00
2022-12-27T19:29:29.290Z,0.00
2022-12-27T19:30:29.325Z,0.00
2022-12-27T19:31:29.321Z,0.00
2022-12-27T19:32:29.282Z,0.00
2022-12-27T19:33:29.259Z,0.00
2022-12-27T19:34:29.251Z,0.00
2022-12-27T19:35:29.225Z,0.00
2022-12-27T19:36:29.294Z,0.00
2022-12-27T19:37:29.212Z,0.00
2022-12-27T19:38:29.211Z,0.00
2022-12-27T19:39:29.196Z,0.00
2022-12-27T19:40:29.174Z,0.00
2022-12-27T19:41:29.185Z,0.00
2022-12-27T19:42:29.171Z,0.00
2022-12-27T19:43:29.134Z,0.00
2022-12-27T19:44:29.156Z,0.00
2022-12-27T19:45:29.127Z,0.00
2022-12-27T19:46:31.370Z,0.00
2022-12-27T19:47:29.102Z,0.00
2022-12-27T19:48:29.095Z,0.00
2022-12-27T19:49:41.839Z,0.00
2022-12-27T19:50:30.067Z,0.00
2022-12-27T19:51:29.080Z,0.00
2022-12-27T19:52:29.028Z,0.00
2022-12-27T19:53:29.027Z,0.00
2022-12-27T19:54:29.023Z,0.00
2022-12-27T19:55:29.015Z,0.00
2022-12-27T19:56:29.016Z,0.00
2022-12-27T19:57:29.027Z,0.00
2022-12-27T19:58:28.967Z,0.00
2022-12-27T19:59:28.975Z,0.00
2022-12-27T20:00:28.956Z,0.00
2022-12-27T20:01:29.053Z,0.00
2022-12-27T20:02:29.047Z,0.00
2022-12-27T20:03:29.046Z,0.00
2022-12-27T20:04:28.909Z,0.00
2022-12-27T20:06:12.368Z,0.00
2022-12-27T20:06:29.903Z,0.00
2022-12-27T20:07:28.884Z,0.00
2022-12-27T20:08:28.854Z,0.00
2022-12-27T20:09:28.883Z,0.00
2022-12-27T20:10:28.843Z,0.00
2022-12-27T20:11:28.866Z,0.00
2022-12-27T20:12:32.569Z,0.00
2022-12-27T20:13:28.803Z,0.00
2022-12-27T20:14:28.800Z,0.00
2022-12-27T20:15:28.777Z,0.00
2022-12-27T20:16:28.821Z,0.00
2022-12-27T20:17:28.801Z,0.00
2022-12-27T20:18:28.779Z,0.00
2022-12-27T20:19:28.745Z,0.00
2022-12-27T20:20:28.729Z,0.00
2022-12-27T20:21:28.728Z,0.00
2022-12-27T20:22:28.721Z,0.00
2022-12-27T20:23:28.689Z,0.00
